Time;durP1;ratioP1;P1;durP2;ratioP2;P2;SDS_P1;SDS_P2;PMS_P1;PMS_P2;Temp;Humidity;BMP_temperature;BMP_pressure;BME280_temperature;BME280_humidity;BME280_pressure;Samples;Min_cycle;Max_cycle;Signal;HPM_P1;HPM_P2
2022/05/09 00:01:51;;;;;;;25.73;3.85;;;;;;;;;;5015392;28;20041;-65
2022/05/09 00:04:17;;;;;;;26.70;4.63;;;;;;;;;;5016880;28;20498;-62
2022/05/09 00:06:44;;;;;;;21.10;3.58;;;;;;;;;;5011619;28;20484;-63
2022/05/09 00:09:11;;;;;;;22.90;3.80;;;;;;;;;;5013942;28;20210;-64
2022/05/09 00:11:38;;;;;;;20.15;3.63;;;;;;;;;;5013726;28;20037;-64
2022/05/09 00:14:04;;;;;;;25.30;3.58;;;;;;;;;;5014512;28;20124;-64
2022/05/09 00:16:33;;;;;;;19.33;3.80;;;;;;;;;;5015239;28;20045;-64
2022/05/09 00:19:04;;;;;;;20.83;3.92;;;;;;;;;;5016234;28;20076;-64
2022/05/09 00:21:33;;;;;;;24.83;3.30;;;;;;;;;;5012825;28;20053;-64
2022/05/09 00:24:00;;;;;;;20.88;3.50;;;;;;;;;;5013615;28;20050;-64
2022/05/09 00:26:31;;;;;;;24.77;3.85;;;;;;;;;;5015916;28;20073;-64
2022/05/09 00:28:58;;;;;;;19.13;3.05;;;;;;;;;;4998492;28;20046;-63
2022/05/09 00:31:24;;;;;;;24.20;3.22;;;;;;;;;;5017060;28;20129;-64
2022/05/09 00:33:50;;;;;;;18.42;2.92;;;;;;;;;;5013492;28;20049;-63
2022/05/09 00:36:17;;;;;;;24.42;4.20;;;;;;;;;;5018252;28;20046;-64
2022/05/09 00:38:44;;;;;;;25.55;3.58;;;;;;;;;;5016789;28;20068;-65
2022/05/09 00:41:29;;;;;;;20.52;3.08;;;;;;;;;;5013680;28;20466;-64
2022/05/09 00:44:06;;;;;;;26.77;3.80;;;;;;;;;;5013233;28;20042;-65
2022/05/09 00:46:33;;;;;;;23.02;3.50;;;;;;;;;;5017398;28;20661;-64
2022/05/09 00:49:03;;;;;;;24.88;4.20;;;;;;;;;;5013824;28;20140;-64
2022/05/09 00:51:30;;;;;;;23.30;3.80;;;;;;;;;;4995307;28;20034;-64
2022/05/09 00:53:57;;;;;;;23.92;4.80;;;;;;;;;;5034324;28;20045;-64
2022/05/09 00:56:26;;;;;;;29.92;5.10;;;;;;;;;;5012808;28;20475;-63
2022/05/09 00:58:55;;;;;;;28.40;6.13;;;;;;;;;;5013547;28;20049;-64
2022/05/09 01:01:21;;;;;;;32.30;5.32;;;;;;;;;;5013553;28;20045;-64
2022/05/09 01:04:06;;;;;;;23.50;5.57;;;;;;;;;;5009320;28;20575;-64
2022/05/09 01:06:33;;;;;;;27.42;5.72;;;;;;;;;;5011710;28;20038;-64
2022/05/09 01:08:59;;;;;;;27.05;5.63;;;;;;;;;;5011338;28;20231;-63
2022/05/09 01:11:27;;;;;;;26.17;6.18;;;;;;;;;;5015447;28;20128;-65
2022/05/09 01:13:55;;;;;;;22.60;5.90;;;;;;;;;;5016121;28;20386;-63
2022/05/09 01:16:21;;;;;;;26.40;5.47;;;;;;;;;;5020338;28;20049;-64
2022/05/09 01:18:48;;;;;;;23.67;6.60;;;;;;;;;;5020406;28;20060;-64
2022/05/09 01:21:33;;;;;;;26.70;7.13;;;;;;;;;;5015082;28;20132;-64
2022/05/09 01:24:00;;;;;;;28.98;7.63;;;;;;;;;;5018843;28;20069;-63
2022/05/09 01:26:26;;;;;;;30.48;7.70;;;;;;;;;;5016180;28;20052;-64
2022/05/09 01:28:52;;;;;;;21.73;6.68;;;;;;;;;;5015306;28;20088;-65
2022/05/09 01:31:19;;;;;;;30.02;7.05;;;;;;;;;;5015928;28;20047;-64
2022/05/09 01:33:49;;;;;;;25.67;7.18;;;;;;;;;;5014238;28;20057;-63
2022/05/09 01:36:16;;;;;;;33.25;8.70;;;;;;;;;;5015600;28;20078;-64
2022/05/09 01:38:55;;;;;;;32.53;8.57;;;;;;;;;;5016566;28;20133;-65
2022/05/09 01:41:21;;;;;;;25.02;7.63;;;;;;;;;;5034571;28;20073;-65
2022/05/09 01:43:50;;;;;;;19.15;6.65;;;;;;;;;;5013690;28;20129;-66
2022/05/09 01:46:18;;;;;;;28.73;8.10;;;;;;;;;;5016780;28;20084;-64
2022/05/09 01:51:29;;;;;;;27.70;7.90;;;;;;;;;;5013304;28;20045;-66
2022/05/09 01:53:56;;;;;;;32.50;8.00;;;;;;;;;;5014703;28;20037;-65
2022/05/09 01:56:25;;;;;;;31.73;8.73;;;;;;;;;;5030512;28;20507;-64
2022/05/09 01:58:51;;;;;;;30.00;7.78;;;;;;;;;;5018831;28;20049;-64
2022/05/09 02:01:18;;;;;;;29.05;8.75;;;;;;;;;;5016628;28;20033;-64
2022/05/09 02:03:47;;;;;;;28.65;9.02;;;;;;;;;;5010001;28;20132;-63
2022/05/09 02:06:14;;;;;;;29.50;8.07;;;;;;;;;;5019216;28;20448;-65
2022/05/09 02:08:40;;;;;;;27.30;8.43;;;;;;;;;;5016974;28;20112;-66
2022/05/09 02:11:06;;;;;;;30.92;8.48;;;;;;;;;;5015738;28;20128;-63
2022/05/09 02:13:33;;;;;;;24.45;8.40;;;;;;;;;;5016056;28;20053;-63
2022/05/09 02:15:59;;;;;;;29.25;8.60;;;;;;;;;;5015796;28;20056;-64
2022/05/09 02:18:25;;;;;;;31.48;8.63;;;;;;;;;;5017859;28;20119;-64
2022/05/09 02:20:51;;;;;;;29.55;8.02;;;;;;;;;;5028718;28;20064;-65
2022/05/09 02:23:18;;;;;;;30.05;9.02;;;;;;;;;;5029654;28;20543;-64
2022/05/09 02:25:45;;;;;;;22.95;8.30;;;;;;;;;;5019801;28;20438;-64
2022/05/09 02:28:12;;;;;;;26.55;8.48;;;;;;;;;;5015241;28;20483;-64
2022/05/09 02:30:38;;;;;;;33.33;8.00;;;;;;;;;;5027324;28;20038;-64
2022/05/09 02:33:05;;;;;;;26.95;9.55;;;;;;;;;;5012049;28;20487;-63
2022/05/09 02:35:32;;;;;;;27.77;8.63;;;;;;;;;;5013082;28;20105;-64
2022/05/09 02:37:58;;;;;;;23.10;8.23;;;;;;;;;;5011595;28;20053;-64
2022/05/09 02:40:24;;;;;;;24.85;8.40;;;;;;;;;;5008027;28;20080;-65
2022/05/09 02:42:52;;;;;;;27.50;8.43;;;;;;;;;;5014674;28;20392;-65
2022/05/09 02:45:18;;;;;;;19.02;7.20;;;;;;;;;;4990859;28;20065;-65
2022/05/09 02:47:44;;;;;;;24.70;7.53;;;;;;;;;;5010889;28;20042;-63
2022/05/09 02:50:11;;;;;;;19.83;6.82;;;;;;;;;;5014185;28;20045;-65
2022/05/09 02:52:37;;;;;;;25.70;7.05;;;;;;;;;;5016091;28;20045;-64
2022/05/09 02:55:07;;;;;;;19.48;6.68;;;;;;;;;;5012043;28;20121;-64
2022/05/09 02:57:34;;;;;;;17.73;7.15;;;;;;;;;;5009410;28;20050;-66
2022/05/09 03:00:00;;;;;;;19.50;6.75;;;;;;;;;;5013065;28;20093;-63
2022/05/09 03:02:27;;;;;;;21.23;6.50;;;;;;;;;;5011863;28;20064;-63
2022/05/09 03:04:53;;;;;;;20.88;7.10;;;;;;;;;;4992441;28;20048;-63
2022/05/09 03:07:19;;;;;;;23.92;7.15;;;;;;;;;;5012403;28;20045;-63
2022/05/09 03:09:50;;;;;;;26.83;7.70;;;;;;;;;;5016546;28;20037;-64
2022/05/09 03:12:19;;;;;;;17.83;7.00;;;;;;;;;;5014514;28;20128;-63
2022/05/09 03:14:46;;;;;;;20.92;7.03;;;;;;;;;;5009691;28;20041;-62
2022/05/09 03:17:12;;;;;;;19.85;7.95;;;;;;;;;;5014109;28;20100;-63
2022/05/09 03:19:38;;;;;;;23.83;8.00;;;;;;;;;;5016299;28;20514;-63
2022/05/09 03:22:04;;;;;;;21.52;7.43;;;;;;;;;;5010777;28;20046;-62
2022/05/09 03:24:32;;;;;;;25.95;8.73;;;;;;;;;;5012745;28;20034;-63
2022/05/09 03:26:59;;;;;;;24.58;8.07;;;;;;;;;;5030963;28;20120;-62
2022/05/09 03:29:25;;;;;;;18.88;8.20;;;;;;;;;;5010976;28;20049;-63
2022/05/09 03:31:52;;;;;;;22.05;7.80;;;;;;;;;;5009385;28;20086;-62
2022/05/09 03:34:19;;;;;;;22.83;8.50;;;;;;;;;;5008234;28;20042;-62
2022/05/09 03:36:45;;;;;;;20.80;7.75;;;;;;;;;;5011473;28;20049;-62
2022/05/09 03:39:11;;;;;;;17.55;7.65;;;;;;;;;;5010117;28;20038;-61
2022/05/09 03:41:38;;;;;;;20.63;7.35;;;;;;;;;;5012213;28;20049;-64
2022/05/09 03:44:05;;;;;;;18.60;7.95;;;;;;;;;;5015961;28;20038;-64
2022/05/09 03:46:31;;;;;;;22.85;8.88;;;;;;;;;;5018308;28;20041;-64
2022/05/09 03:48:57;;;;;;;31.88;13.45;;;;;;;;;;5016838;28;20384;-63
2022/05/09 03:51:23;;;;;;;31.50;11.90;;;;;;;;;;5014896;28;20041;-63
2022/05/09 03:53:50;;;;;;;33.03;13.85;;;;;;;;;;5012749;28;20041;-64
2022/05/09 03:56:16;;;;;;;26.48;11.88;;;;;;;;;;5016680;28;20038;-64
2022/05/09 03:58:42;;;;;;;44.78;15.77;;;;;;;;;;5012626;28;20499;-64
2022/05/09 04:01:08;;;;;;;50.17;17.02;;;;;;;;;;5014108;28;20087;-64
2022/05/09 04:03:34;;;;;;;40.03;17.63;;;;;;;;;;5013612;28;20472;-66
2022/05/09 04:06:01;;;;;;;49.08;18.70;;;;;;;;;;5011608;28;20046;-66
2022/05/09 04:08:27;;;;;;;43.92;16.15;;;;;;;;;;5013948;28;20049;-65
2022/05/09 04:10:58;;;;;;;35.63;14.13;;;;;;;;;;5013330;28;20088;-65
2022/05/09 04:13:24;;;;;;;40.55;14.27;;;;;;;;;;5012035;28;20049;-66
2022/05/09 04:18:40;;;;;;;45.80;16.70;;;;;;;;;;5019346;28;20048;-65
2022/05/09 04:21:06;;;;;;;37.78;15.18;;;;;;;;;;5012302;28;20068;-65
2022/05/09 04:23:33;;;;;;;40.58;15.23;;;;;;;;;;5013175;28;20048;-66
2022/05/09 04:25:59;;;;;;;38.65;14.45;;;;;;;;;;5012407;28;20065;-65
2022/05/09 04:28:25;;;;;;;35.78;15.48;;;;;;;;;;4995134;28;20550;-64
2022/05/09 04:30:52;;;;;;;43.75;13.60;;;;;;;;;;5010720;28;20863;-65
2022/05/09 04:33:18;;;;;;;38.88;15.50;;;;;;;;;;5013159;28;20104;-65
2022/05/09 04:35:44;;;;;;;38.38;15.35;;;;;;;;;;5016503;28;20041;-66
2022/05/09 04:38:22;;;;;;;32.25;13.75;;;;;;;;;;5010121;28;20045;-65
2022/05/09 04:40:51;;;;;;;34.28;13.93;;;;;;;;;;5012167;28;20073;-65
2022/05/09 04:43:19;;;;;;;35.10;13.45;;;;;;;;;;5014443;28;20553;-65
2022/05/09 04:45:45;;;;;;;32.10;12.85;;;;;;;;;;5013866;28;20048;-65
2022/05/09 04:48:11;;;;;;;36.72;13.18;;;;;;;;;;4994328;28;20069;-66
2022/05/09 04:50:37;;;;;;;32.05;11.30;;;;;;;;;;5010905;28;20096;-65
2022/05/09 04:53:03;;;;;;;30.95;11.95;;;;;;;;;;5009862;28;20463;-65
2022/05/09 04:55:29;;;;;;;26.30;10.15;;;;;;;;;;5008543;28;20446;-63
2022/05/09 04:57:56;;;;;;;30.85;10.82;;;;;;;;;;5018922;28;20046;-61
2022/05/09 05:00:25;;;;;;;33.75;10.15;;;;;;;;;;5018229;28;20538;-62
2022/05/09 05:02:51;;;;;;;27.20;10.73;;;;;;;;;;5013995;28;20076;-62
2022/05/09 05:05:19;;;;;;;22.83;9.75;;;;;;;;;;5013496;28;20080;-63
2022/05/09 05:07:46;;;;;;;31.67;10.30;;;;;;;;;;5018023;28;20112;-63
2022/05/09 05:10:13;;;;;;;30.10;10.73;;;;;;;;;;5012760;28;20442;-62
2022/05/09 05:12:39;;;;;;;33.85;10.70;;;;;;;;;;5011273;28;20053;-64
2022/05/09 05:15:05;;;;;;;32.95;10.38;;;;;;;;;;5012246;28;20049;-64
2022/05/09 05:17:31;;;;;;;26.05;10.43;;;;;;;;;;5019596;28;20049;-64
2022/05/09 05:19:57;;;;;;;28.52;10.63;;;;;;;;;;5011874;28;20042;-63
2022/05/09 05:22:23;;;;;;;31.08;10.27;;;;;;;;;;5013418;28;20417;-64
2022/05/09 05:24:53;;;;;;;26.15;9.57;;;;;;;;;;5009530;28;20059;-64
2022/05/09 05:27:21;;;;;;;27.25;9.75;;;;;;;;;;5012683;28;20084;-63
2022/05/09 05:29:47;;;;;;;23.00;8.55;;;;;;;;;;5016807;28;20084;-63
2022/05/09 05:32:23;;;;;;;22.92;7.95;;;;;;;;;;5015366;28;20044;-64
2022/05/09 05:34:50;;;;;;;26.88;8.05;;;;;;;;;;4999687;28;20048;-64
2022/05/09 05:37:16;;;;;;;22.67;7.43;;;;;;;;;;5012724;28;20042;-63
2022/05/09 05:39:43;;;;;;;21.98;7.65;;;;;;;;;;5014108;28;20077;-64
2022/05/09 05:42:09;;;;;;;17.90;6.72;;;;;;;;;;5017723;28;20040;-63
2022/05/09 05:44:37;;;;;;;22.33;6.28;;;;;;;;;;5019952;28;20033;-64
2022/05/09 05:47:07;;;;;;;13.63;5.03;;;;;;;;;;5018050;28;20046;-65
2022/05/09 05:49:34;;;;;;;17.25;5.97;;;;;;;;;;5014364;28;20401;-63
2022/05/09 05:52:03;;;;;;;19.05;5.45;;;;;;;;;;5019790;28;20044;-64
2022/05/09 05:54:30;;;;;;;17.15;4.45;;;;;;;;;;5017329;28;20069;-64
2022/05/09 05:56:56;;;;;;;11.00;2.85;;;;;;;;;;5013214;28;20040;-63
2022/05/09 05:59:22;;;;;;;13.57;2.60;;;;;;;;;;5016212;28;20132;-64
2022/05/09 06:01:51;;;;;;;15.07;2.72;;;;;;;;;;4998562;28;20041;-64
2022/05/09 06:04:18;;;;;;;12.98;2.47;;;;;;;;;;4999790;28;20083;-64
2022/05/09 06:06:44;;;;;;;15.65;3.20;;;;;;;;;;5017208;28;20558;-65
2022/05/09 06:09:11;;;;;;;13.40;3.13;;;;;;;;;;5012621;28;20072;-64
2022/05/09 06:11:38;;;;;;;14.80;3.35;;;;;;;;;;5017455;28;20061;-64
2022/05/09 06:14:05;;;;;;;14.88;3.65;;;;;;;;;;5017825;28;20042;-64
2022/05/09 06:16:31;;;;;;;15.73;3.83;;;;;;;;;;5016942;28;20040;-64
2022/05/09 06:18:59;;;;;;;13.40;3.28;;;;;;;;;;5016501;28;20088;-63
2022/05/09 06:21:26;;;;;;;12.75;3.25;;;;;;;;;;5016189;28;20535;-64
2022/05/09 06:23:52;;;;;;;15.25;3.95;;;;;;;;;;5017354;28;20403;-63
2022/05/09 06:26:20;;;;;;;13.90;4.13;;;;;;;;;;5003400;28;20721;-64
2022/05/09 06:28:46;;;;;;;9.52;2.67;;;;;;;;;;5017010;28;20071;-63
2022/05/09 06:31:12;;;;;;;19.52;4.90;;;;;;;;;;5009391;28;20531;-64
2022/05/09 06:33:38;;;;;;;13.68;3.58;;;;;;;;;;4991428;28;20053;-64
2022/05/09 06:36:05;;;;;;;10.32;3.55;;;;;;;;;;5007928;28;20037;-64
2022/05/09 06:38:33;;;;;;;14.77;4.57;;;;;;;;;;4991340;28;20042;-64
2022/05/09 06:41:01;;;;;;;14.32;3.78;;;;;;;;;;5007761;28;20042;-65
2022/05/09 06:43:27;;;;;;;13.95;4.15;;;;;;;;;;5007829;28;20046;-65
2022/05/09 06:45:54;;;;;;;15.45;4.53;;;;;;;;;;5009258;28;20444;-65
2022/05/09 06:48:20;;;;;;;16.23;4.03;;;;;;;;;;4991885;28;20053;-66
2022/05/09 06:50:46;;;;;;;19.50;5.07;;;;;;;;;;5009615;28;20077;-65
2022/05/09 06:53:13;;;;;;;16.23;4.35;;;;;;;;;;5008096;28;20135;-66
2022/05/09 06:55:39;;;;;;;17.60;4.88;;;;;;;;;;5009358;28;20052;-66
2022/05/09 06:58:06;;;;;;;15.13;5.20;;;;;;;;;;5007522;28;20052;-66
2022/05/09 07:00:32;;;;;;;16.52;5.20;;;;;;;;;;5008838;28;20558;-66
2022/05/09 07:02:58;;;;;;;12.48;4.72;;;;;;;;;;5008762;28;20104;-65
2022/05/09 07:05:24;;;;;;;13.10;5.30;;;;;;;;;;5009063;28;20038;-65
2022/05/09 07:07:51;;;;;;;12.60;4.55;;;;;;;;;;5023870;28;20095;-65
2022/05/09 07:10:18;;;;;;;16.98;5.47;;;;;;;;;;5008841;28;20044;-64
2022/05/09 07:12:45;;;;;;;14.02;4.80;;;;;;;;;;5009330;28;20480;-65
2022/05/09 07:15:13;;;;;;;11.85;5.35;;;;;;;;;;5007542;28;20134;-64
2022/05/09 07:17:39;;;;;;;17.88;5.65;;;;;;;;;;5007855;28;20508;-65
2022/05/09 07:20:05;;;;;;;17.58;6.35;;;;;;;;;;5012477;28;20052;-65
2022/05/09 07:22:31;;;;;;;15.55;5.30;;;;;;;;;;5012915;28;20104;-66
2022/05/09 07:24:57;;;;;;;17.80;6.20;;;;;;;;;;5013608;28;20045;-66
2022/05/09 07:27:23;;;;;;;13.45;4.93;;;;;;;;;;5004024;28;20087;-66
2022/05/09 07:29:49;;;;;;;15.85;5.65;;;;;;;;;;5025215;28;20041;-66
2022/05/09 07:32:15;;;;;;;20.10;6.28;;;;;;;;;;5003986;28;20127;-65
2022/05/09 07:34:42;;;;;;;14.98;5.80;;;;;;;;;;5021244;28;20079;-65
2022/05/09 07:37:08;;;;;;;14.10;5.35;;;;;;;;;;5020160;28;20049;-66
2022/05/09 07:39:34;;;;;;;16.15;5.32;;;;;;;;;;5018245;28;20046;-65
2022/05/09 07:42:00;;;;;;;14.38;4.80;;;;;;;;;;5019928;28;20044;-66
2022/05/09 07:44:26;;;;;;;15.50;5.22;;;;;;;;;;5019658;28;20033;-65
2022/05/09 07:46:52;;;;;;;14.18;5.35;;;;;;;;;;5013598;28;20045;-64
2022/05/09 07:49:18;;;;;;;15.93;5.55;;;;;;;;;;5002673;28;20056;-65
2022/05/09 07:51:47;;;;;;;13.18;4.80;;;;;;;;;;5013154;28;20566;-65
2022/05/09 07:54:14;;;;;;;18.23;5.13;;;;;;;;;;5017868;28;20122;-65
2022/05/09 07:56:43;;;;;;;14.38;4.97;;;;;;;;;;5019963;28;20097;-66
2022/05/09 07:59:09;;;;;;;14.82;5.30;;;;;;;;;;5017229;28;20524;-64
2022/05/09 08:01:35;;;;;;;10.70;4.35;;;;;;;;;;5017431;28;20041;-65
2022/05/09 08:04:01;;;;;;;13.88;4.70;;;;;;;;;;5021092;28;20445;-66
2022/05/09 08:06:27;;;;;;;14.07;4.75;;;;;;;;;;5022170;28;20042;-65
2022/05/09 08:08:53;;;;;;;11.23;4.68;;;;;;;;;;5002851;28;20080;-65
2022/05/09 08:11:21;;;;;;;12.50;4.60;;;;;;;;;;5014992;28;20037;-65
2022/05/09 08:13:47;;;;;;;11.38;4.25;;;;;;;;;;5017496;28;20062;-64
2022/05/09 08:16:14;;;;;;;11.13;4.15;;;;;;;;;;5017346;28;20049;-65
2022/05/09 08:18:40;;;;;;;12.55;4.90;;;;;;;;;;5016917;28;20041;-64
2022/05/09 08:21:09;;;;;;;10.00;3.92;;;;;;;;;;5002730;28;20050;-66
2022/05/09 08:23:36;;;;;;;10.60;4.45;;;;;;;;;;5012066;28;20042;-64
2022/05/09 08:26:03;;;;;;;10.15;4.00;;;;;;;;;;5016290;28;20038;-65
2022/05/09 08:28:29;;;;;;;10.55;3.53;;;;;;;;;;5013300;28;20045;-65
2022/05/09 08:30:57;;;;;;;11.30;3.50;;;;;;;;;;5010783;28;20180;-65
2022/05/09 08:33:25;;;;;;;8.77;4.22;;;;;;;;;;5013598;28;20046;-64
2022/05/09 08:35:52;;;;;;;11.05;4.18;;;;;;;;;;5018473;28;20044;-66
2022/05/09 08:38:19;;;;;;;10.93;3.47;;;;;;;;;;5023338;28;20042;-66
2022/05/09 08:40:53;;;;;;;12.32;3.95;;;;;;;;;;5018615;28;20069;-66
2022/05/09 08:43:31;;;;;;;11.30;4.20;;;;;;;;;;5016952;28;20395;-64
2022/05/09 08:46:03;;;;;;;13.57;4.00;;;;;;;;;;5004504;28;20042;-65
2022/05/09 08:48:47;;;;;;;8.30;4.13;;;;;;;;;;5016111;28;20162;-65
2022/05/09 08:51:16;;;;;;;10.90;4.82;;;;;;;;;;5018619;28;20045;-66
2022/05/09 08:53:44;;;;;;;12.18;4.50;;;;;;;;;;5013231;28;20147;-65
2022/05/09 08:56:12;;;;;;;10.07;4.07;;;;;;;;;;5011313;28;20041;-63
2022/05/09 08:59:11;;;;;;;9.75;3.63;;;;;;;;;;5009721;28;20057;-63
2022/05/09 09:01:44;;;;;;;8.80;4.47;;;;;;;;;;4989039;28;20120;-64
2022/05/09 09:04:20;;;;;;;12.13;4.03;;;;;;;;;;5004512;28;20551;-63
2022/05/09 09:06:49;;;;;;;10.57;4.15;;;;;;;;;;5013454;28;20419;-63
2022/05/09 09:09:18;;;;;;;11.30;3.75;;;;;;;;;;5015129;28;20037;-63
2022/05/09 09:11:47;;;;;;;12.30;4.22;;;;;;;;;;5019215;28;20042;-63
2022/05/09 09:14:21;;;;;;;9.55;4.32;;;;;;;;;;5014682;28;20045;-63
2022/05/09 09:17:08;;;;;;;11.73;3.95;;;;;;;;;;5010034;28;20041;-64
2022/05/09 09:20:07;;;;;;;11.85;5.63;;;;;;;;;;5016212;28;20045;-63
2022/05/09 09:22:36;;;;;;;11.07;4.20;;;;;;;;;;4983816;28;20137;-64
2022/05/09 09:25:20;;;;;;;7.68;3.75;;;;;;;;;;5037059;28;20052;-65
2022/05/09 09:27:49;;;;;;;9.32;4.28;;;;;;;;;;5016357;28;20038;-64
2022/05/09 09:30:18;;;;;;;10.23;4.00;;;;;;;;;;4999265;28;20038;-64
2022/05/09 09:32:54;;;;;;;9.77;3.92;;;;;;;;;;4994216;28;20042;-64
2022/05/09 09:35:39;;;;;;;11.23;3.95;;;;;;;;;;5009084;28;20038;-64
2022/05/09 09:38:08;;;;;;;11.60;4.15;;;;;;;;;;5010534;28;20041;-63
2022/05/09 09:40:34;;;;;;;12.32;4.45;;;;;;;;;;5009034;28;20452;-64
2022/05/09 09:43:00;;;;;;;10.82;3.72;;;;;;;;;;5009247;28;20503;-64
2022/05/09 09:45:29;;;;;;;8.85;3.65;;;;;;;;;;5009234;28;20045;-64
2022/05/09 09:48:15;;;;;;;9.05;4.30;;;;;;;;;;5009539;28;20129;-64
2022/05/09 09:51:01;;;;;;;12.75;4.40;;;;;;;;;;5010683;28;20429;-64
2022/05/09 09:53:30;;;;;;;13.93;4.30;;;;;;;;;;5010293;28;20555;-66
2022/05/09 09:56:01;;;;;;;10.88;4.40;;;;;;;;;;5008875;28;20056;-65
2022/05/09 09:58:28;;;;;;;12.80;3.58;;;;;;;;;;5008426;28;20049;-67
2022/05/09 10:01:02;;;;;;;12.48;4.03;;;;;;;;;;5008745;28;20049;-67
2022/05/09 10:03:29;;;;;;;10.20;3.80;;;;;;;;;;5008737;28;20042;-66
2022/05/09 10:05:56;;;;;;;11.38;3.35;;;;;;;;;;5009132;28;20041;-67
2022/05/09 10:08:42;;;;;;;10.43;3.50;;;;;;;;;;5008500;28;20353;-66
2022/05/09 10:11:21;;;;;;;9.40;3.10;;;;;;;;;;4992469;28;20060;-66
2022/05/09 10:13:51;;;;;;;10.93;3.50;;;;;;;;;;5008595;28;20058;-66
2022/05/09 10:16:35;;;;;;;7.88;2.92;;;;;;;;;;4992600;28;20045;-66
2022/05/09 10:19:02;;;;;;;12.27;3.10;;;;;;;;;;4991867;28;20033;-66
2022/05/09 10:27:14;;;;;;;10.18;2.70;;;;;;;;;;5008213;28;20450;-67
2022/05/09 10:29:40;;;;;;;8.82;2.85;;;;;;;;;;5007901;28;20049;-67
2022/05/09 10:32:09;;;;;;;7.65;2.88;;;;;;;;;;4991997;28;20479;-66
2022/05/09 10:34:51;;;;;;;10.18;2.92;;;;;;;;;;5009355;28;20048;-66
2022/05/09 10:37:38;;;;;;;25.57;4.30;;;;;;;;;;4975610;28;20050;-66
2022/05/09 10:40:26;;;;;;;12.07;2.80;;;;;;;;;;5009614;28;20285;-67
2022/05/09 10:43:05;;;;;;;11.02;2.80;;;;;;;;;;5009619;28;20084;-66
2022/05/09 10:45:36;;;;;;;8.93;2.22;;;;;;;;;;4991543;28;20038;-66
2022/05/09 10:48:07;;;;;;;8.35;2.85;;;;;;;;;;5008021;28;20108;-67
2022/05/09 10:50:35;;;;;;;12.02;2.97;;;;;;;;;;5008653;28;20049;-67
2022/05/09 10:53:10;;;;;;;8.90;2.67;;;;;;;;;;5001553;28;20042;-67
2022/05/09 10:55:39;;;;;;;10.93;2.45;;;;;;;;;;5011952;28;20383;-67
2022/05/09 10:58:06;;;;;;;9.88;2.38;;;;;;;;;;5014984;28;20038;-67
2022/05/09 11:00:34;;;;;;;6.75;2.13;;;;;;;;;;5001098;28;20042;-67
2022/05/09 11:03:07;;;;;;;9.10;2.60;;;;;;;;;;5017906;28;20498;-66
2022/05/09 11:05:40;;;;;;;9.68;2.47;;;;;;;;;;5015707;28;21270;-65
2022/05/09 11:08:12;;;;;;;8.88;2.00;;;;;;;;;;5015779;28;20377;-65
2022/05/09 11:11:05;;;;;;;8.90;2.03;;;;;;;;;;5013854;28;20061;-67
2022/05/09 11:13:43;;;;;;;8.05;2.00;;;;;;;;;;5006613;28;20053;-67
2022/05/09 11:16:18;;;;;;;8.35;2.50;;;;;;;;;;5009135;28;20057;-66
2022/05/09 11:19:04;;;;;;;10.25;2.10;;;;;;;;;;5007056;28;20153;-67
2022/05/09 11:21:51;;;;;;;7.50;1.90;;;;;;;;;;5002380;28;20133;-67
2022/05/09 11:24:17;;;;;;;8.20;1.80;;;;;;;;;;4997985;28;20305;-67
2022/05/09 11:27:02;;;;;;;9.48;2.25;;;;;;;;;;4995582;28;20392;-68
2022/05/09 11:29:49;;;;;;;10.35;2.00;;;;;;;;;;5018847;28;20041;-66
2022/05/09 11:32:18;;;;;;;9.50;2.13;;;;;;;;;;5022667;28;20052;-67
2022/05/09 11:35:03;;;;;;;9.82;2.22;;;;;;;;;;5037030;28;20041;-67
2022/05/09 11:37:54;;;;;;;6.30;1.58;;;;;;;;;;5012324;28;20072;-67
2022/05/09 11:40:35;;;;;;;9.10;2.15;;;;;;;;;;5008697;28;20042;-66
2022/05/09 11:43:28;;;;;;;8.10;2.03;;;;;;;;;;5008000;28;20092;-68
2022/05/09 11:46:13;;;;;;;8.30;1.80;;;;;;;;;;5007418;28;20092;-67
2022/05/09 11:48:43;;;;;;;7.53;2.00;;;;;;;;;;4991363;28;20165;-66
2022/05/09 11:51:28;;;;;;;8.77;1.95;;;;;;;;;;4990906;28;20492;-67
2022/05/09 11:53:57;;;;;;;9.30;2.42;;;;;;;;;;5007917;28;20533;-67
2022/05/09 11:56:24;;;;;;;6.93;1.77;;;;;;;;;;4991274;28;20049;-67
2022/05/09 11:58:50;;;;;;;7.68;1.50;;;;;;;;;;4975278;28;20042;-67
2022/05/09 12:01:17;;;;;;;7.97;1.95;;;;;;;;;;5007073;28;20107;-67
2022/05/09 12:03:43;;;;;;;8.00;1.70;;;;;;;;;;4991166;28;20124;-68
2022/05/09 12:06:12;;;;;;;7.47;1.63;;;;;;;;;;5011184;28;20046;-67
2022/05/09 12:08:45;;;;;;;6.15;1.42;;;;;;;;;;5011837;28;20049;-67
2022/05/09 12:11:22;;;;;;;7.55;2.22;;;;;;;;;;5011573;28;20049;-67
2022/05/09 12:13:50;;;;;;;5.80;1.63;;;;;;;;;;5009799;28;20108;-67
2022/05/09 12:16:36;;;;;;;6.57;1.45;;;;;;;;;;5010776;28;20077;-68
2022/05/09 12:19:03;;;;;;;8.20;1.85;;;;;;;;;;4990547;28;20050;-68
2022/05/09 12:21:41;;;;;;;7.10;1.58;;;;;;;;;;5009964;28;20590;-67
2022/05/09 12:24:19;;;;;;;6.95;1.45;;;;;;;;;;5011835;28;20060;-67
2022/05/09 12:26:47;;;;;;;8.48;1.85;;;;;;;;;;5010339;28;20058;-67
2022/05/09 12:29:16;;;;;;;6.00;1.60;;;;;;;;;;5011546;28;20046;-67
2022/05/09 12:31:49;;;;;;;7.22;1.75;;;;;;;;;;5011524;28;20034;-66
2022/05/09 12:34:17;;;;;;;7.50;1.80;;;;;;;;;;5010268;28;20041;-66
2022/05/09 12:36:46;;;;;;;6.07;1.83;;;;;;;;;;5010100;28;20484;-68
2022/05/09 12:39:17;;;;;;;9.45;1.50;;;;;;;;;;5010286;28;20049;-68
2022/05/09 12:41:56;;;;;;;5.80;1.50;;;;;;;;;;5009899;28;20527;-67
2022/05/09 12:44:22;;;;;;;6.43;1.75;;;;;;;;;;4994040;28;20189;-67
2022/05/09 12:47:00;;;;;;;7.25;1.95;;;;;;;;;;4993991;28;20045;-67
2022/05/09 12:49:33;;;;;;;7.53;1.70;;;;;;;;;;5010403;28;20392;-67
2022/05/09 12:51:59;;;;;;;8.73;2.10;;;;;;;;;;5010267;28;20576;-67
2022/05/09 12:54:28;;;;;;;7.50;1.75;;;;;;;;;;5010145;28;20161;-68
2022/05/09 12:56:56;;;;;;;6.50;1.77;;;;;;;;;;5011318;28;20045;-67
2022/05/09 12:59:23;;;;;;;7.70;1.95;;;;;;;;;;5009348;28;20099;-67
2022/05/09 13:01:52;;;;;;;10.30;2.60;;;;;;;;;;4993221;28;20211;-68
2022/05/09 13:04:23;;;;;;;9.75;2.10;;;;;;;;;;5011127;28;20050;-67
2022/05/09 13:06:51;;;;;;;9.93;2.17;;;;;;;;;;4993398;28;20045;-67
2022/05/09 13:09:19;;;;;;;7.82;2.03;;;;;;;;;;5010932;28;20066;-68
2022/05/09 13:11:49;;;;;;;10.18;2.70;;;;;;;;;;5008704;28;20058;-67
2022/05/09 13:14:19;;;;;;;9.48;2.58;;;;;;;;;;5008873;28;20054;-68
2022/05/09 13:17:05;;;;;;;9.07;2.70;;;;;;;;;;5008884;28;20048;-67
2022/05/09 13:19:32;;;;;;;9.13;2.55;;;;;;;;;;4992633;28;20073;-66
2022/05/09 13:21:58;;;;;;;11.68;2.58;;;;;;;;;;4976462;28;20130;-67
2022/05/09 13:24:26;;;;;;;10.43;2.63;;;;;;;;;;5010599;28;20087;-67
2022/05/09 13:26:56;;;;;;;12.05;2.88;;;;;;;;;;5010767;28;20407;-67
2022/05/09 13:29:24;;;;;;;8.90;2.33;;;;;;;;;;5010496;28;20700;-67
2022/05/09 13:31:51;;;;;;;9.88;2.92;;;;;;;;;;5008981;28;20693;-67
2022/05/09 13:34:23;;;;;;;9.85;2.45;;;;;;;;;;5009361;28;20305;-67
2022/05/09 13:36:49;;;;;;;8.50;2.50;;;;;;;;;;5010441;28;20077;-66
2022/05/09 13:39:29;;;;;;;12.13;2.80;;;;;;;;;;5010454;28;20420;-67
2022/05/09 13:41:57;;;;;;;7.85;2.50;;;;;;;;;;5012689;28;20045;-66
2022/05/09 13:44:24;;;;;;;9.85;1.83;;;;;;;;;;5011174;28;20034;-66
2022/05/09 13:46:51;;;;;;;9.38;2.47;;;;;;;;;;5014374;28;20136;-67
2022/05/09 13:49:18;;;;;;;9.85;2.10;;;;;;;;;;5016701;28;20045;-67
2022/05/09 13:51:59;;;;;;;9.70;2.25;;;;;;;;;;5006065;28;20048;-68
2022/05/09 13:54:27;;;;;;;9.30;2.53;;;;;;;;;;5019191;28;20580;-66
2022/05/09 13:57:12;;;;;;;8.18;2.20;;;;;;;;;;5017429;28;20079;-66
2022/05/09 13:59:39;;;;;;;10.82;2.30;;;;;;;;;;5034800;28;20045;-65
2022/05/09 14:02:05;;;;;;;10.00;2.20;;;;;;;;;;5009088;28;20058;-66
2022/05/09 14:04:32;;;;;;;9.95;2.20;;;;;;;;;;5009172;28;20049;-66
2022/05/09 14:07:37;;;;;;;7.93;2.05;;;;;;;;;;5010892;28;20111;-66
2022/05/09 14:09:52;;;;;;;8.68;3.65;;;;;;;;;;5014957;28;20049;-66
2022/05/09 14:12:19;;;;;;;10.40;2.58;;;;;;;;;;4994639;28;20043;-66
2022/05/09 14:14:59;;;;;;;11.23;2.72;;;;;;;;;;4992386;28;20132;-67
2022/05/09 14:17:28;;;;;;;8.77;2.60;;;;;;;;;;5009297;28;20632;-66
2022/05/09 14:19:57;;;;;;;7.20;2.63;;;;;;;;;;5009456;28;20045;-66
2022/05/09 14:22:24;;;;;;;7.93;2.03;;;;;;;;;;5009329;28;20100;-65
2022/05/09 14:30:21;;;;;;;6.68;1.85;;;;;;;;;;5014427;28;20054;-66
2022/05/09 14:32:48;;;;;;;9.20;2.28;;;;;;;;;;5008891;28;20048;-67
2022/05/09 14:35:15;;;;;;;11.38;2.75;;;;;;;;;;5012949;28;20491;-68
2022/05/09 14:37:51;;;;;;;11.93;2.22;;;;;;;;;;5008440;28;20042;-66
2022/05/09 14:40:22;;;;;;;11.57;2.25;;;;;;;;;;5010163;28;20105;-67
2022/05/09 14:42:50;;;;;;;8.80;2.13;;;;;;;;;;4992680;28;20759;-66
2022/05/09 14:45:18;;;;;;;8.40;2.10;;;;;;;;;;5010163;28;20041;-66
2022/05/09 14:47:46;;;;;;;9.93;2.33;;;;;;;;;;5008504;28;20053;-66
2022/05/09 14:50:13;;;;;;;12.73;2.60;;;;;;;;;;5012846;28;20684;-67
2022/05/09 14:52:46;;;;;;;10.20;3.00;;;;;;;;;;5003391;28;20045;-67
2022/05/09 14:58:17;;;;;;;10.07;2.22;;;;;;;;;;5014067;28;20042;-67
2022/05/09 15:00:49;;;;;;;11.88;2.42;;;;;;;;;;5014690;28;20377;-67
2022/05/09 15:03:19;;;;;;;7.93;2.20;;;;;;;;;;5016148;28;20070;-66
2022/05/09 15:05:46;;;;;;;8.77;2.38;;;;;;;;;;5018496;28;20097;-67